Time;durP1;ratioP1;P1;durP2;ratioP2;P2;SDS_P1;SDS_P2;PMS_P1;PMS_P2;Temp;Humidity;BMP_temperature;BMP_pressure;BME280_temperature;BME280_humidity;BME280_pressure;Samples;Min_cycle;Max_cycle;Signal;HPM_P1;HPM_P2
2022/05/29 00:01:11;;;;;;;9.47;3.30;;;8.00;99.90;;;;;;5108658;28;20289;-51
2022/05/29 00:03:41;;;;;;;7.40;3.30;;;7.90;99.90;;;;;;5108917;28;20720;-50
2022/05/29 00:06:11;;;;;;;7.17;3.07;;;7.90;99.90;;;;;;5109874;28;20245;-51
2022/05/29 00:08:42;;;;;;;9.20;3.13;;;7.80;99.90;;;;;;5109429;28;20210;-51
2022/05/29 00:11:13;;;;;;;9.80;3.27;;;7.70;99.90;;;;;;5109766;28;20230;-51
2022/05/29 00:13:44;;;;;;;7.83;3.07;;;7.60;99.90;;;;;;5109392;28;20223;-51
2022/05/29 00:16:12;;;;;;;8.27;3.30;;;7.60;99.90;;;;;;5110025;28;20218;-51
2022/05/29 00:18:43;;;;;;;11.53;3.73;;;7.60;99.90;;;;;;5109754;28;20242;-51
2022/05/29 00:21:11;;;;;;;11.23;3.40;;;7.50;99.90;;;;;;5108133;28;20227;-50
2022/05/29 00:23:42;;;;;;;9.60;3.70;;;7.40;99.90;;;;;;5108133;28;20226;-51
2022/05/29 00:26:11;;;;;;;5.63;3.27;;;7.30;99.90;;;;;;5110372;28;20214;-51
2022/05/29 00:28:39;;;;;;;10.33;3.50;;;7.30;99.90;;;;;;5111896;28;20214;-51
2022/05/29 00:31:07;;;;;;;8.77;3.27;;;7.20;99.90;;;;;;5102484;28;20209;-51
2022/05/29 00:33:35;;;;;;;6.00;3.17;;;7.20;99.90;;;;;;5112386;28;20230;-51
2022/05/29 00:36:05;;;;;;;8.83;3.03;;;7.10;99.90;;;;;;5113592;27;20235;-51
2022/05/29 00:38:38;;;;;;;9.40;3.50;;;7.00;99.90;;;;;;5112455;28;20250;-51
2022/05/29 00:41:17;;;;;;;9.83;3.53;;;7.00;99.90;;;;;;5113049;28;20266;-51
2022/05/29 00:43:47;;;;;;;8.47;3.10;;;7.00;99.90;;;;;;5111391;27;20286;-51
2022/05/29 00:46:15;;;;;;;9.03;3.13;;;7.00;99.90;;;;;;5112698;28;20213;-52
2022/05/29 00:48:44;;;;;;;9.97;3.00;;;7.00;99.90;;;;;;5118462;27;20271;-51
2022/05/29 00:51:14;;;;;;;7.13;3.33;;;6.90;99.90;;;;;;5112410;28;20244;-51
2022/05/29 00:53:42;;;;;;;8.70;2.97;;;6.90;99.90;;;;;;5111795;28;20239;-51
2022/05/29 00:56:13;;;;;;;8.27;3.17;;;6.90;99.90;;;;;;5113545;28;20299;-51
2022/05/29 00:58:42;;;;;;;11.60;3.40;;;6.80;99.90;;;;;;5112620;28;20233;-50
2022/05/29 01:01:10;;;;;;;7.93;3.60;;;6.80;99.90;;;;;;5112692;28;20265;-51
2022/05/29 01:03:38;;;;;;;7.93;3.63;;;6.80;99.90;;;;;;5112055;28;20262;-52
2022/05/29 01:06:07;;;;;;;8.50;3.40;;;6.70;99.90;;;;;;5112603;28;20873;-51
2022/05/29 01:08:39;;;;;;;7.10;3.00;;;6.70;99.90;;;;;;5112491;28;20590;-51
2022/05/29 01:11:23;;;;;;;10.17;3.53;;;6.70;99.90;;;;;;5112386;28;20230;-51
2022/05/29 01:14:04;;;;;;;7.23;3.23;;;6.70;99.90;;;;;;5112464;28;20278;-51
2022/05/29 01:16:41;;;;;;;6.93;3.10;;;6.70;99.90;;;;;;5112530;28;20241;-51
2022/05/29 01:19:37;;;;;;;9.13;3.50;;;6.70;99.90;;;;;;5112951;28;20237;-51
2022/05/29 01:22:20;;;;;;;9.03;3.00;;;6.60;99.90;;;;;;5109577;28;20843;-51
2022/05/29 01:25:12;;;;;;;7.00;3.10;;;6.50;99.90;;;;;;5112397;28;20223;-51
2022/05/29 01:27:51;;;;;;;13.60;3.77;;;6.50;99.90;;;;;;5112163;28;20685;-51
2022/05/29 01:30:24;;;;;;;7.23;3.40;;;6.40;99.90;;;;;;5105984;27;20705;-51
2022/05/29 01:32:59;;;;;;;11.07;3.23;;;6.40;99.90;;;;;;5105073;28;20249;-51
2022/05/29 01:35:33;;;;;;;9.03;3.20;;;6.40;99.90;;;;;;5112785;27;20751;-51
2022/05/29 01:38:07;;;;;;;8.03;3.23;;;6.30;99.90;;;;;;5110691;28;20216;-51
2022/05/29 01:40:39;;;;;;;5.10;2.80;;;6.30;99.90;;;;;;5112144;28;20226;-51
2022/05/29 01:43:15;;;;;;;9.30;3.60;;;6.20;99.90;;;;;;5113945;28;20235;-50
2022/05/29 01:45:56;;;;;;;8.60;3.80;;;6.20;99.90;;;;;;5113442;28;20204;-50
2022/05/29 01:48:40;;;;;;;9.73;3.30;;;6.10;99.90;;;;;;5123872;27;20199;-51
2022/05/29 01:51:14;;;;;;;6.13;3.17;;;6.20;99.90;;;;;;5111963;28;20240;-51
2022/05/29 01:53:46;;;;;;;10.47;3.30;;;6.20;99.90;;;;;;5111168;28;20227;-51
2022/05/29 01:56:19;;;;;;;6.13;3.27;;;6.20;99.90;;;;;;5095552;28;20242;-51
2022/05/29 01:58:53;;;;;;;10.30;3.43;;;6.20;99.90;;;;;;5098564;28;20207;-51
2022/05/29 02:01:26;;;;;;;11.00;3.57;;;6.10;99.90;;;;;;5093960;28;20245;-51
2022/05/29 02:03:56;;;;;;;7.67;3.30;;;6.00;99.90;;;;;;5109149;28;20223;-50
2022/05/29 02:06:28;;;;;;;7.77;3.10;;;6.00;99.90;;;;;;5099805;28;20207;-51
2022/05/29 02:09:05;;;;;;;10.17;3.13;;;6.00;99.90;;;;;;5111568;28;20242;-50
2022/05/29 02:11:33;;;;;;;5.13;2.83;;;6.00;99.90;;;;;;5111584;28;20238;-52
2022/05/29 02:14:06;;;;;;;9.93;3.13;;;6.10;99.90;;;;;;5111062;28;20234;-51
2022/05/29 02:16:40;;;;;;;5.17;2.90;;;6.00;99.90;;;;;;5111225;28;20287;-51
2022/05/29 02:19:22;;;;;;;8.10;3.40;;;6.00;99.90;;;;;;5111520;28;20204;-50
2022/05/29 02:21:55;;;;;;;11.27;3.80;;;5.90;99.90;;;;;;5110087;28;20273;-51
2022/05/29 02:24:30;;;;;;;8.30;3.13;;;6.00;99.90;;;;;;5111097;28;20288;-51
2022/05/29 02:27:14;;;;;;;8.37;3.63;;;5.90;99.90;;;;;;5110866;28;20936;-51
2022/05/29 02:29:43;;;;;;;9.27;3.57;;;5.90;99.90;;;;;;5106937;28;20203;-50
2022/05/29 02:32:22;;;;;;;6.93;3.10;;;5.90;99.90;;;;;;5110538;27;20305;-51
2022/05/29 02:35:02;;;;;;;7.37;3.23;;;5.90;99.90;;;;;;5109216;28;20231;-50
2022/05/29 02:37:35;;;;;;;5.23;3.20;;;5.90;99.90;;;;;;5110320;28;20226;-51
2022/05/29 02:40:11;;;;;;;7.07;3.47;;;5.90;99.90;;;;;;5110323;28;20635;-51
2022/05/29 02:42:42;;;;;;;8.63;3.33;;;5.90;99.90;;;;;;5109717;28;20223;-51
2022/05/29 02:45:17;;;;;;;8.97;3.40;;;5.90;99.90;;;;;;5111116;28;20211;-51
2022/05/29 02:47:59;;;;;;;8.77;3.37;;;5.80;99.90;;;;;;5110495;28;20207;-51
2022/05/29 02:50:39;;;;;;;8.57;3.47;;;5.80;99.90;;;;;;5096454;28;20231;-51
2022/05/29 02:53:10;;;;;;;9.33;3.37;;;5.80;99.90;;;;;;5109366;28;20836;-51
2022/05/29 02:55:39;;;;;;;4.80;3.10;;;5.70;99.90;;;;;;5111311;28;20231;-51
2022/05/29 02:58:13;;;;;;;6.83;3.47;;;5.70;99.90;;;;;;5111072;28;20215;-51
2022/05/29 03:00:59;;;;;;;10.93;3.87;;;5.70;99.90;;;;;;5111168;28;20257;-51
2022/05/29 03:03:35;;;;;;;9.63;3.40;;;5.70;99.90;;;;;;5108881;28;20665;-50
2022/05/29 03:06:22;;;;;;;7.10;3.83;;;5.60;99.90;;;;;;5098820;28;20211;-51
2022/05/29 03:09:03;;;;;;;9.50;3.77;;;5.60;99.90;;;;;;5110760;28;20211;-51
2022/05/29 03:11:38;;;;;;;6.23;3.60;;;5.60;99.90;;;;;;5110138;28;20261;-51
2022/05/29 03:14:11;;;;;;;6.47;3.50;;;5.60;99.90;;;;;;5110438;28;20198;-51
2022/05/29 03:16:51;;;;;;;8.07;3.40;;;5.60;99.90;;;;;;5110647;28;20214;-51
2022/05/29 03:19:31;;;;;;;7.67;3.33;;;5.60;99.90;;;;;;5110606;28;20234;-51
2022/05/29 03:22:08;;;;;;;4.57;3.20;;;5.60;99.90;;;;;;5108428;28;20787;-50
2022/05/29 03:24:43;;;;;;;6.60;3.23;;;5.50;99.90;;;;;;5090095;28;20244;-50
2022/05/29 03:27:20;;;;;;;6.23;3.50;;;5.60;99.90;;;;;;5104837;28;20235;-51
2022/05/29 03:29:55;;;;;;;7.10;2.90;;;5.50;99.90;;;;;;5107468;28;20959;-51
2022/05/29 03:32:24;;;;;;;6.93;3.63;;;5.50;99.90;;;;;;5105416;27;20264;-50
2022/05/29 03:34:54;;;;;;;7.73;3.70;;;5.50;99.90;;;;;;5101676;28;20246;-51
2022/05/29 03:37:23;;;;;;;10.37;3.80;;;5.50;99.90;;;;;;5115326;27;20252;-51
2022/05/29 03:39:50;;;;;;;7.33;3.47;;;5.50;99.90;;;;;;5110039;28;20243;-51
2022/05/29 03:42:19;;;;;;;7.33;3.30;;;5.50;99.90;;;;;;5108887;28;20226;-51
2022/05/29 03:44:46;;;;;;;6.03;3.70;;;5.40;99.90;;;;;;5109739;28;20250;-51
2022/05/29 03:47:15;;;;;;;10.13;3.87;;;5.40;99.90;;;;;;5109681;28;20625;-51
2022/05/29 03:49:43;;;;;;;6.80;3.70;;;5.40;99.90;;;;;;5108857;28;20245;-51
2022/05/29 03:52:12;;;;;;;8.33;3.67;;;5.40;99.90;;;;;;5109001;28;20255;-51
2022/05/29 03:54:40;;;;;;;5.17;3.10;;;5.40;99.90;;;;;;5109955;28;20215;-51
2022/05/29 03:57:08;;;;;;;6.47;3.40;;;5.50;99.90;;;;;;5109176;28;20209;-51
2022/05/29 03:59:36;;;;;;;5.30;2.70;;;5.50;99.90;;;;;;5108900;28;20749;-52
2022/05/29 04:02:05;;;;;;;5.23;3.77;;;5.60;99.90;;;;;;5113995;28;20225;-51
2022/05/29 04:04:33;;;;;;;7.07;3.60;;;5.60;99.90;;;;;;5106100;28;20625;-51
2022/05/29 04:07:01;;;;;;;6.70;3.27;;;5.70;99.90;;;;;;5112370;28;20246;-51
2022/05/29 04:12:16;;;;;;;6.60;3.33;;;5.70;99.90;;;;;;5115159;28;20645;-51
2022/05/29 04:14:45;;;;;;;5.50;3.50;;;5.60;99.90;;;;;;5116113;28;20217;-51
2022/05/29 04:17:15;;;;;;;6.27;3.23;;;5.70;99.90;;;;;;5116308;28;20645;-51
2022/05/29 04:19:44;;;;;;;8.83;3.57;;;5.70;99.90;;;;;;5115911;28;20269;-51
2022/05/29 04:22:15;;;;;;;6.63;3.70;;;5.80;99.90;;;;;;5114467;28;20707;-51
2022/05/29 04:24:45;;;;;;;5.57;3.10;;;6.00;99.90;;;;;;5116137;28;20257;-51
2022/05/29 04:27:15;;;;;;;7.43;3.50;;;6.00;99.90;;;;;;5115978;28;20226;-51
2022/05/29 04:29:43;;;;;;;5.50;3.30;;;6.10;99.90;;;;;;5113725;27;20290;-52
2022/05/29 04:34:57;;;;;;;7.80;3.60;;;6.00;99.90;;;;;;5109741;28;20204;-51
2022/05/29 04:37:28;;;;;;;6.17;2.77;;;6.10;99.90;;;;;;5118279;27;20713;-51
2022/05/29 04:39:57;;;;;;;6.13;3.00;;;6.20;99.90;;;;;;5115607;28;20215;-51
2022/05/29 04:42:25;;;;;;;8.23;3.27;;;6.30;99.90;;;;;;5115323;28;20231;-51
2022/05/29 04:44:54;;;;;;;6.13;3.37;;;6.40;99.90;;;;;;5115875;28;20672;-52
2022/05/29 04:47:23;;;;;;;6.13;3.33;;;6.60;99.90;;;;;;5116765;28;20272;-51
2022/05/29 04:49:51;;;;;;;4.37;2.67;;;6.70;99.90;;;;;;5115646;28;20237;-51
2022/05/29 04:52:19;;;;;;;10.43;3.30;;;6.80;99.90;;;;;;5115543;28;20254;-52
2022/05/29 04:54:47;;;;;;;6.43;3.33;;;6.90;99.90;;;;;;5115649;28;20245;-51
2022/05/29 04:57:17;;;;;;;6.20;3.30;;;7.20;99.90;;;;;;5102057;28;20229;-51
2022/05/29 04:59:45;;;;;;;5.50;3.13;;;8.30;99.90;;;;;;5116654;28;20207;-51
2022/05/29 05:02:13;;;;;;;5.27;2.97;;;8.20;99.90;;;;;;5115205;28;20654;-52
2022/05/29 05:04:41;;;;;;;6.40;3.13;;;9.10;99.90;;;;;;5104945;28;20219;-51
2022/05/29 05:07:09;;;;;;;9.43;2.90;;;10.40;99.90;;;;;;5112793;28;20199;-52
2022/05/29 05:09:37;;;;;;;4.40;2.77;;;11.20;99.90;;;;;;5102083;28;20641;-50
2022/05/29 05:12:06;;;;;;;5.13;2.70;;;11.90;99.90;;;;;;5112854;28;20227;-51
2022/05/29 05:14:36;;;;;;;5.43;2.87;;;12.40;99.90;;;;;;5114976;28;20238;-51
2022/05/29 05:17:05;;;;;;;6.53;2.70;;;13.30;99.90;;;;;;5100134;28;20680;-52
2022/05/29 05:19:33;;;;;;;3.50;2.40;;;13.80;99.90;;;;;;5106937;28;20207;-51
2022/05/29 05:22:02;;;;;;;5.50;2.70;;;14.30;99.90;;;;;;5104679;28;20232;-52
2022/05/29 05:24:30;;;;;;;6.13;2.60;;;13.70;99.90;;;;;;5097935;28;20302;-52
2022/05/29 05:26:59;;;;;;;8.93;2.97;;;13.20;99.90;;;;;;5112003;28;20204;-52
2022/05/29 05:29:27;;;;;;;5.63;2.93;;;12.60;99.90;;;;;;5110659;28;20199;-52
2022/05/29 05:31:56;;;;;;;5.70;2.63;;;12.90;99.90;;;;;;5103929;27;20265;-52
2022/05/29 05:34:27;;;;;;;7.23;2.90;;;14.10;99.90;;;;;;5109333;28;20691;-51
2022/05/29 05:36:55;;;;;;;6.90;2.85;;;14.70;99.90;;;;;;5104671;28;20262;-51
2022/05/29 05:39:24;;;;;;;5.28;2.63;;;14.20;99.90;;;;;;5104010;28;20253;-51
2022/05/29 05:41:52;;;;;;;4.43;2.58;;;14.00;99.90;;;;;;5108140;28;20558;-50
2022/05/29 05:44:20;;;;;;;7.82;3.05;;;13.70;99.90;;;;;;5109482;28;20743;-51
2022/05/29 05:46:49;;;;;;;7.07;2.97;;;13.30;99.90;;;;;;5107597;28;20238;-51
2022/05/29 05:49:20;;;;;;;8.07;3.03;;;13.20;99.90;;;;;;5099972;28;20207;-51
2022/05/29 05:51:50;;;;;;;4.63;2.90;;;13.30;99.90;;;;;;5109385;28;20279;-51
2022/05/29 05:54:19;;;;;;;5.90;2.77;;;13.10;99.90;;;;;;5110098;28;20656;-50
2022/05/29 05:56:51;;;;;;;6.20;2.77;;;13.30;99.90;;;;;;5102352;28;20208;-52
2022/05/29 05:59:19;;;;;;;6.82;2.75;;;14.40;99.90;;;;;;5102926;28;20215;-52
2022/05/29 06:01:47;;;;;;;7.53;2.75;;;15.30;99.90;;;;;;5093353;28;20203;-51
2022/05/29 06:04:16;;;;;;;8.18;2.70;;;15.70;99.90;;;;;;5093418;28;20616;-52
2022/05/29 06:06:45;;;;;;;8.10;2.67;;;16.40;99.90;;;;;;5104218;28;20214;-51
2022/05/29 06:09:13;;;;;;;5.95;2.75;;;16.90;99.90;;;;;;5089926;28;20254;-52
2022/05/29 06:11:41;;;;;;;5.28;2.72;;;17.30;99.90;;;;;;5089935;28;20734;-52
2022/05/29 06:14:10;;;;;;;6.82;2.80;;;17.20;99.90;;;;;;5097486;28;20769;-52
2022/05/29 06:16:38;;;;;;;8.40;3.05;;;16.10;99.90;;;;;;5099220;28;20329;-52
2022/05/29 06:19:07;;;;;;;5.57;2.97;;;15.00;99.90;;;;;;5107344;28;20219;-52
2022/05/29 06:21:36;;;;;;;8.77;2.65;;;14.50;99.90;;;;;;5106169;28;20196;-52
2022/05/29 06:24:06;;;;;;;7.35;2.83;;;14.40;99.90;;;;;;5093297;28;20224;-52
2022/05/29 06:26:34;;;;;;;7.50;2.92;;;14.30;99.90;;;;;;5097323;28;20208;-51
2022/05/29 06:29:02;;;;;;;7.45;2.65;;;14.20;99.90;;;;;;5095090;28;20243;-51
2022/05/29 06:31:30;;;;;;;6.07;3.03;;;14.10;99.90;;;;;;5090728;28;20232;-51
2022/05/29 06:33:59;;;;;;;4.80;2.67;;;14.00;99.90;;;;;;5092281;28;20779;-52
2022/05/29 06:36:27;;;;;;;8.77;3.35;;;14.50;99.90;;;;;;5089379;28;20822;-51
2022/05/29 06:38:57;;;;;;;6.57;3.03;;;15.60;99.90;;;;;;5087889;28;20212;-52
2022/05/29 06:41:29;;;;;;;7.45;2.88;;;16.40;99.90;;;;;;5088311;28;20238;-52
2022/05/29 06:43:57;;;;;;;7.85;2.78;;;16.80;99.90;;;;;;5087281;28;20232;-52
2022/05/29 06:46:25;;;;;;;7.35;2.70;;;17.40;99.90;;;;;;5089126;28;20200;-52
2022/05/29 06:48:54;;;;;;;6.38;2.88;;;17.80;99.90;;;;;;5096178;28;20315;-52
2022/05/29 06:51:23;;;;;;;4.53;2.70;;;18.10;99.90;;;;;;5087532;28;20208;-52
2022/05/29 06:53:55;;;;;;;6.65;2.75;;;18.30;99.90;;;;;;5089302;28;20270;-52
2022/05/29 06:56:24;;;;;;;5.15;2.47;;;18.60;99.90;;;;;;5090170;28;20208;-51
2022/05/29 06:58:55;;;;;;;5.93;2.90;;;19.10;99.90;;;;;;5097469;28;20200;-52
2022/05/29 07:07:02;;;;;;;7.93;2.85;;;19.60;99.90;;;;;;5089846;28;20212;-53
2022/05/29 07:09:32;;;;;;;6.53;2.80;;;19.90;99.90;;;;;;5096036;28;20245;-52
2022/05/29 07:12:06;;;;;;;9.10;2.40;;;20.10;99.90;;;;;;5099233;28;20220;-50
2022/05/29 07:14:39;;;;;;;6.07;2.50;;;20.40;99.90;;;;;;5090482;28;20208;-52
2022/05/29 07:17:07;;;;;;;4.45;2.08;;;20.50;99.80;;;;;;5086498;28;20261;-52
2022/05/29 07:19:35;;;;;;;2.63;1.98;;;20.50;98.40;;;;;;5089808;28;20204;-52
2022/05/29 07:22:04;;;;;;;5.32;2.60;;;20.60;97.10;;;;;;5090315;28;20795;-52
2022/05/29 07:24:35;;;;;;;3.80;2.10;;;20.30;97.10;;;;;;5100918;28;20258;-52
2022/05/29 07:27:04;;;;;;;4.40;2.28;;;20.40;96.70;;;;;;5095665;28;20239;-52
2022/05/29 07:29:32;;;;;;;3.55;1.95;;;20.50;96.60;;;;;;5093374;27;20204;-53
2022/05/29 07:32:02;;;;;;;5.70;2.25;;;20.10;96.30;;;;;;5090206;28;20229;-52
2022/05/29 07:34:30;;;;;;;3.95;2.08;;;19.80;96.20;;;;;;5086607;28;20574;-52
2022/05/29 07:37:06;;;;;;;4.63;2.30;;;19.80;96.90;;;;;;5088089;28;20308;-52
2022/05/29 07:39:38;;;;;;;4.50;2.20;;;19.60;97.00;;;;;;5086747;28;20239;-52
2022/05/29 07:44:52;;;;;;;4.78;2.30;;;18.70;98.90;;;;;;5087735;28;20224;-52
2022/05/29 07:47:23;;;;;;;4.68;2.33;;;18.30;99.70;;;;;;5090490;28;20797;-52
2022/05/29 07:49:51;;;;;;;3.33;2.00;;;18.20;99.90;;;;;;5101908;28;20235;-52
2022/05/29 07:52:20;;;;;;;5.70;2.10;;;18.10;99.50;;;;;;5097268;28;20298;-52
2022/05/29 07:54:48;;;;;;;5.80;2.03;;;17.70;99.00;;;;;;5098785;28;20727;-52
2022/05/29 07:57:16;;;;;;;6.45;2.55;;;17.20;98.90;;;;;;5101505;28;20292;-52
2022/05/29 07:59:44;;;;;;;4.60;2.10;;;17.10;99.90;;;;;;5101570;28;20231;-52
2022/05/29 08:02:12;;;;;;;5.07;2.15;;;17.00;99.90;;;;;;5097857;28;20259;-52
2022/05/29 08:04:42;;;;;;;6.28;2.20;;;17.00;99.90;;;;;;5090137;28;20277;-52
2022/05/29 08:07:11;;;;;;;5.05;2.13;;;17.00;99.90;;;;;;5099592;28;20204;-52
2022/05/29 08:09:39;;;;;;;4.80;2.30;;;17.00;99.90;;;;;;5096740;28;20240;-51
2022/05/29 08:12:08;;;;;;;6.30;2.47;;;17.10;99.90;;;;;;5097603;28;20228;-52
2022/05/29 08:14:36;;;;;;;5.60;2.45;;;17.10;99.90;;;;;;5101460;28;20204;-52
2022/05/29 08:17:05;;;;;;;3.42;1.88;;;17.20;99.90;;;;;;5090198;28;20623;-52
2022/05/29 08:19:34;;;;;;;4.75;2.00;;;17.20;99.90;;;;;;5090026;28;20234;-51
2022/05/29 08:22:04;;;;;;;2.97;2.00;;;17.00;99.50;;;;;;5097154;28;20235;-52
2022/05/29 08:33:09;;;;;;;4.65;2.00;;;17.00;99.50;;;;;;5087780;28;20259;-52
2022/05/29 08:35:38;;;;;;;3.78;1.73;;;17.00;99.40;;;;;;5096704;28;20204;-52
2022/05/29 08:38:08;;;;;;;4.10;1.83;;;17.00;99.20;;;;;;5098291;28;20216;-52
2022/05/29 08:40:42;;;;;;;4.60;1.63;;;17.00;99.90;;;;;;5091503;28;20204;-52
2022/05/29 08:43:17;;;;;;;3.88;1.70;;;17.10;99.10;;;;;;5087406;28;20251;-52
2022/05/29 08:45:49;;;;;;;4.85;2.10;;;17.20;98.10;;;;;;5092591;28;20227;-51
2022/05/29 08:48:21;;;;;;;5.20;1.85;;;17.40;98.40;;;;;;5101300;28;20299;-51
2022/05/29 08:51:08;;;;;;;4.38;1.55;;;17.60;99.10;;;;;;5103568;28;20231;-52
2022/05/29 08:53:51;;;;;;;3.88;1.92;;;17.50;99.10;;;;;;5100451;28;20251;-53
2022/05/29 08:56:27;;;;;;;5.32;1.60;;;17.60;98.80;;;;;;5100786;28;20234;-52
2022/05/29 08:59:15;;;;;;;3.63;1.83;;;17.60;98.00;;;;;;5101030;28;20207;-52
2022/05/29 09:01:58;;;;;;;4.00;1.45;;;17.70;96.60;;;;;;5102937;27;20205;-52
2022/05/29 09:04:31;;;;;;;4.70;1.77;;;17.80;96.10;;;;;;5098077;28;20204;-51
2022/05/29 09:07:03;;;;;;;2.45;1.67;;;17.60;96.10;;;;;;5092268;28;20223;-52
2022/05/29 09:09:38;;;;;;;2.08;1.45;;;17.70;96.40;;;;;;5090398;28;20301;-51
2022/05/29 09:12:11;;;;;;;1.95;1.50;;;18.20;98.30;;;;;;5089753;28;20267;-51
2022/05/29 09:14:51;;;;;;;3.03;1.38;;;18.10;97.10;;;;;;5090393;28;20196;-52
2022/05/29 09:17:29;;;;;;;2.80;1.70;;;17.90;96.30;;;;;;5099385;28;20332;-52
2022/05/29 09:20:01;;;;;;;3.53;1.60;;;17.90;96.80;;;;;;5103886;27;20245;-52
2022/05/29 09:22:33;;;;;;;3.75;1.90;;;18.00;97.80;;;;;;5095027;28;20574;-52
2022/05/29 09:25:07;;;;;;;3.58;1.50;;;18.10;99.00;;;;;;5098373;28;20277;-52
2022/05/29 09:27:36;;;;;;;4.97;1.80;;;18.00;97.10;;;;;;5098103;28;20204;-52
2022/05/29 09:30:06;;;;;;;3.53;1.60;;;17.90;98.20;;;;;;5094217;28;20208;-52
2022/05/29 09:32:36;;;;;;;2.78;1.67;;;18.10;98.50;;;;;;5100782;28;20293;-51
2022/05/29 09:35:13;;;;;;;1.83;1.20;;;18.30;98.30;;;;;;5108254;27;20257;-52
2022/05/29 09:37:48;;;;;;;1.52;1.00;;;18.50;96.70;;;;;;5100878;28;21494;-52
2022/05/29 09:40:21;;;;;;;3.28;1.40;;;18.90;96.20;;;;;;5106810;28;20256;-51
2022/05/29 09:42:52;;;;;;;2.58;1.48;;;19.00;94.20;;;;;;5098160;28;20301;-51
2022/05/29 09:45:32;;;;;;;2.10;1.35;;;19.40;96.00;;;;;;5094676;28;20208;-51
2022/05/29 09:50:55;;;;;;;2.83;1.30;;;18.70;95.10;;;;;;5105132;28;20211;-52
2022/05/29 09:53:25;;;;;;;2.80;1.58;;;18.40;94.80;;;;;;5097287;28;20224;-52
2022/05/29 09:56:00;;;;;;;2.70;1.80;;;17.90;94.50;;;;;;5106474;27;20218;-53
2022/05/29 09:58:31;;;;;;;2.97;1.40;;;17.80;95.40;;;;;;5090459;28;20253;-52
2022/05/29 10:01:03;;;;;;;2.38;1.60;;;17.80;96.00;;;;;;5090399;28;20249;-52
2022/05/29 10:03:49;;;;;;;3.65;1.40;;;17.90;96.60;;;;;;5090526;28;20228;-52
2022/05/29 10:06:26;;;;;;;3.40;1.77;;;18.00;97.30;;;;;;5100767;28;20277;-52
2022/05/29 10:09:08;;;;;;;3.05;1.60;;;17.90;95.60;;;;;;5101508;28;20253;-52
2022/05/29 10:11:40;;;;;;;3.38;1.35;;;18.00;97.00;;;;;;5100457;28;20203;-52
2022/05/29 10:14:25;;;;;;;2.83;1.50;;;18.00;97.20;;;;;;5094704;28;20246;-51
2022/05/29 10:16:55;;;;;;;2.75;1.50;;;18.20;97.30;;;;;;5100355;28;20294;-52
2022/05/29 10:19:36;;;;;;;2.55;1.70;;;18.10;96.40;;;;;;5096753;28;20208;-53
2022/05/29 10:22:12;;;;;;;2.97;1.50;;;18.30;97.60;;;;;;5099534;28;20224;-52
2022/05/29 10:24:41;;;;;;;2.10;1.30;;;18.50;98.20;;;;;;5098688;28;20341;-50
2022/05/29 10:27:22;;;;;;;2.85;1.80;;;18.50;97.10;;;;;;5095313;28;20259;-51
2022/05/29 10:29:55;;;;;;;3.28;1.48;;;18.70;97.10;;;;;;5093767;28;20272;-52
2022/05/29 10:32:27;;;;;;;4.00;1.60;;;18.30;96.10;;;;;;5090847;28;20220;-52
2022/05/29 10:35:12;;;;;;;2.33;1.23;;;18.20;96.50;;;;;;5096236;28;20284;-52
2022/05/29 10:37:42;;;;;;;2.17;1.30;;;18.10;96.50;;;;;;5102240;28;20238;-52
2022/05/29 10:40:18;;;;;;;3.72;1.42;;;17.90;96.90;;;;;;5090008;28;20291;-52
2022/05/29 10:42:50;;;;;;;2.10;1.40;;;17.80;96.50;;;;;;5096538;28;20879;-51
2022/05/29 10:45:21;;;;;;;1.60;1.20;;;17.60;96.50;;;;;;5105226;28;20223;-51
2022/05/29 10:48:18;;;;;;;1.42;1.00;;;17.40;96.80;;;;;;5093413;28;20212;-51
2022/05/29 10:50:59;;;;;;;4.80;1.40;;;17.20;97.50;;;;;;5083269;28;20254;-51
2022/05/29 10:53:42;;;;;;;2.30;1.38;;;17.20;99.20;;;;;;5090240;27;20243;-51
2022/05/29 10:56:17;;;;;;;2.67;1.40;;;17.30;99.00;;;;;;5090151;28;20649;-52
2022/05/29 10:59:10;;;;;;;2.15;1.08;;;17.30;98.80;;;;;;5090284;28;20238;-52
2022/05/29 11:04:46;;;;;;;1.98;1.13;;;17.40;99.40;;;;;;5096409;28;20609;-51
2022/05/29 11:07:33;;;;;;;2.50;1.20;;;17.40;98.70;;;;;;5103798;28;20703;-52
2022/05/29 11:10:20;;;;;;;0.90;0.90;;;17.50;98.50;;;;;;5102953;28;20235;-51
2022/05/29 11:13:00;;;;;;;2.90;1.08;;;17.60;98.50;;;;;;5109286;28;20235;-52
2022/05/29 11:15:40;;;;;;;2.17;1.38;;;18.00;99.70;;;;;;5103205;28;20253;-51
2022/05/29 11:18:34;;;;;;;2.72;1.13;;;18.30;99.80;;;;;;5097510;28;20193;-51
2022/05/29 11:21:14;;;;;;;1.98;1.10;;;18.20;98.60;;;;;;5107776;28;20360;-51
2022/05/29 11:23:58;;;;;;;2.90;1.58;;;17.90;98.70;;;;;;5087884;28;20220;-52
2022/05/29 11:26:42;;;;;;;2.67;1.10;;;17.60;98.90;;;;;;5094604;28;20751;-51
2022/05/29 11:29:27;;;;;;;2.38;1.30;;;17.40;98.10;;;;;;5092319;28;20199;-52
2022/05/29 11:32:25;;;;;;;3.10;1.77;;;17.10;98.40;;;;;;5088355;28;20310;-52
2022/05/29 11:35:18;;;;;;;4.32;1.95;;;16.50;99.10;;;;;;5095443;28;20239;-52
2022/05/29 11:38:17;;;;;;;4.50;1.92;;;16.10;99.90;;;;;;5088135;28;20208;-52
2022/05/29 11:40:49;;;;;;;3.85;2.10;;;15.70;99.90;;;;;;5073369;28;20211;-51
2022/05/29 11:43:26;;;;;;;4.40;1.90;;;15.40;99.90;;;;;;5099877;27;20605;-51
2022/05/29 11:51:41;;;;;;;2.75;1.42;;;15.20;99.90;;;;;;5075757;28;20272;-51
2022/05/29 11:54:21;;;;;;;1.55;1.45;;;15.10;99.90;;;;;;5088718;28;20204;-52
2022/05/29 11:56:56;;;;;;;2.78;1.88;;;15.10;99.90;;;;;;5089252;28;20266;-52
2022/05/29 11:59:35;;;;;;;1.52;1.35;;;15.10;99.90;;;;;;5089048;28;20231;-52
2022/05/29 12:02:09;;;;;;;2.92;1.50;;;15.40;99.90;;;;;;5087397;28;21158;-52
2022/05/29 12:04:45;;;;;;;4.03;2.70;;;15.50;99.90;;;;;;5089278;28;20203;-51
2022/05/29 12:07:21;;;;;;;3.00;1.40;;;15.70;99.90;;;;;;5101628;28;20654;-52
2022/05/29 12:09:54;;;;;;;5.13;2.50;;;15.90;99.90;;;;;;5102120;28;20198;-51
2022/05/29 12:12:28;;;;;;;5.30;3.28;;;16.20;99.90;;;;;;5097082;28;20897;-52
2022/05/29 12:14:59;;;;;;;5.38;3.75;;;16.30;99.90;;;;;;5102437;28;20234;-51
2022/05/29 12:17:38;;;;;;;4.35;2.40;;;16.40;99.90;;;;;;5108543;28;20718;-51
2022/05/29 12:20:14;;;;;;;4.00;2.17;;;16.50;99.90;;;;;;5108135;28;20239;-52
2022/05/29 12:22:49;;;;;;;4.07;2.00;;;16.80;99.90;;;;;;5109802;28;20218;-52
2022/05/29 12:25:33;;;;;;;3.95;2.28;;;17.20;99.90;;;;;;5112564;28;20211;-51
2022/05/29 12:28:07;;;;;;;1.48;1.17;;;17.10;99.90;;;;;;5094990;28;20231;-51
2022/05/29 12:30:39;;;;;;;1.77;1.42;;;17.00;99.90;;;;;;5092879;28;20254;-52
2022/05/29 12:33:14;;;;;;;1.33;1.00;;;17.20;99.90;;;;;;5100336;28;20716;-51
2022/05/29 12:35:51;;;;;;;3.00;1.38;;;17.40;99.90;;;;;;5096769;28;20251;-53
2022/05/29 12:38:49;;;;;;;1.38;1.02;;;17.60;99.90;;;;;;5100844;28;20240;-52
2022/05/29 12:41:40;;;;;;;2.20;1.10;;;17.90;99.90;;;;;;5078993;28;20239;-53
2022/05/29 12:44:50;;;;;;;1.48;1.10;;;18.10;99.90;;;;;;5099554;28;20686;-52
2022/05/29 12:47:46;;;;;;;3.13;1.15;;;18.40;99.90;;;;;;5097205;28;20301;-51
2022/05/29 12:50:48;;;;;;;2.15;1.23;;;18.30;99.90;;;;;;5099272;28;20196;-52
2022/05/29 12:53:34;;;;;;;2.38;1.75;;;18.00;99.80;;;;;;5101553;28;20220;-52
2022/05/29 12:56:18;;;;;;;2.63;1.50;;;17.90;99.90;;;;;;5094907;28;20701;-52
2022/05/29 12:59:10;;;;;;;1.55;1.30;;;18.00;98.20;;;;;;5094194;28;20239;-52
2022/05/29 13:01:59;;;;;;;2.63;1.52;;;18.00;99.70;;;;;;5091261;28;20246;-52
2022/05/29 13:05:17;;;;;;;2.42;1.10;;;18.10;99.90;;;;;;5096139;28;20211;-52
2022/05/29 13:08:28;;;;;;;2.45;1.92;;;18.20;99.40;;;;;;5086420;28;20314;-51
2022/05/29 13:10:59;;;;;;;6.80;5.78;;;18.40;99.90;;;;;;5111549;28;20214;-52
2022/05/29 13:13:33;;;;;;;2.05;1.30;;;18.20;99.90;;;;;;5092673;28;20239;-52
2022/05/29 13:16:20;;;;;;;1.58;1.23;;;18.20;99.90;;;;;;5091800;28;20302;-52
2022/05/29 13:19:14;;;;;;;1.60;1.50;;;18.30;99.90;;;;;;5090055;28;20215;-52
2022/05/29 13:21:54;;;;;;;3.58;1.65;;;18.40;99.90;;;;;;5096399;28;20203;-52
2022/05/29 13:24:26;;;;;;;2.35;1.50;;;18.20;99.90;;;;;;5092348;28;20283;-53
2022/05/29 13:27:30;;;;;;;3.00;1.77;;;18.10;99.90;;;;;;5091407;28;20212;-51
2022/05/29 13:29:59;;;;;;;3.67;2.20;;;18.00;99.90;;;;;;5097897;27;20249;-52
2022/05/29 13:32:36;;;;;;;3.05;2.40;;;17.90;99.90;;;;;;5090794;28;20708;-52
2022/05/29 13:35:32;;;;;;;1.95;1.33;;;17.90;99.90;;;;;;5091829;28;20208;-53
2022/05/29 13:38:01;;;;;;;6.85;6.10;;;18.00;99.90;;;;;;5090328;28;20791;-52
2022/05/29 13:40:43;;;;;;;3.47;1.67;;;18.20;99.90;;;;;;5089678;28;20204;-52
2022/05/29 13:43:37;;;;;;;1.67;1.10;;;18.20;99.90;;;;;;5105101;28;20272;-51
2022/05/29 13:46:18;;;;;;;3.00;2.22;;;18.40;99.90;;;;;;5091495;28;20234;-51
2022/05/29 13:49:03;;;;;;;14.00;10.38;;;18.60;99.60;;;;;;5106150;28;20216;-52
2022/05/29 13:51:35;;;;;;;8.30;6.55;;;18.60;98.40;;;;;;5110142;28;20235;-52
2022/05/29 13:54:07;;;;;;;2.15;1.10;;;18.70;98.70;;;;;;5092412;28;20220;-52
2022/05/29 13:57:01;;;;;;;4.38;0.88;;;18.60;97.80;;;;;;5090845;28;20723;-52
2022/05/29 14:05:29;;;;;;;3.65;1.98;;;18.10;99.70;;;;;;5102954;28;20247;-52
2022/05/29 14:08:25;;;;;;;2.22;1.75;;;17.70;98.50;;;;;;5090669;28;20270;-52